sensor_id;sensor_type;location;lat;lon;timestamp;P1;durP1;ratioP1;P2;durP2;ratioP2
19867;SDS011;10096;51.112;6.776;2022-11-20T00:00:49;22.57;;;16.40;;
19867;SDS011;10096;51.112;6.776;2022-11-20T00:03:16;20.10;;;14.60;;
19867;SDS011;10096;51.112;6.776;2022-11-20T00:05:43;20.00;;;15.00;;
19867;SDS011;10096;51.112;6.776;2022-11-20T00:08:13;19.83;;;15.47;;
19867;SDS011;10096;51.112;6.776;2022-11-20T00:10:40;20.83;;;15.70;;
19867;SDS011;10096;51.112;6.776;2022-11-20T00:13:08;20.57;;;14.47;;
19867;SDS011;10096;51.112;6.776;2022-11-20T00:15:36;19.73;;;15.30;;
19867;SDS011;10096;51.112;6.776;2022-11-20T00:18:03;21.20;;;15.03;;
19867;SDS011;10096;51.112;6.776;2022-11-20T00:20:30;20.47;;;15.20;;
19867;SDS011;10096;51.112;6.776;2022-11-20T00:22:57;20.10;;;15.30;;
19867;SDS011;10096;51.112;6.776;2022-11-20T00:25:24;19.97;;;15.47;;
19867;SDS011;10096;51.112;6.776;2022-11-20T00:27:51;20.87;;;15.80;;
19867;SDS011;10096;51.112;6.776;2022-11-20T00:30:18;19.70;;;14.87;;
19867;SDS011;10096;51.112;6.776;2022-11-20T00:32:47;17.83;;;14.37;;
19867;SDS011;10096;51.112;6.776;2022-11-20T00:35:14;21.47;;;14.93;;
19867;SDS011;10096;51.112;6.776;2022-11-20T00:37:41;21.63;;;15.50;;
19867;SDS011;10096;51.112;6.776;2022-11-20T00:40:08;21.03;;;15.70;;
19867;SDS011;10096;51.112;6.776;2022-11-20T00:42:36;20.50;;;15.50;;
19867;SDS011;10096;51.112;6.776;2022-11-20T00:45:03;19.53;;;14.83;;
19867;SDS011;10096;51.112;6.776;2022-11-20T00:47:30;19.93;;;15.50;;
19867;SDS011;10096;51.112;6.776;2022-11-20T00:49:59;20.13;;;15.50;;
19867;SDS011;10096;51.112;6.776;2022-11-20T00:52:26;20.30;;;16.43;;
19867;SDS011;10096;51.112;6.776;2022-11-20T00:54:53;20.63;;;15.53;;
19867;SDS011;10096;51.112;6.776;2022-11-20T00:57:20;19.37;;;15.20;;
19867;SDS011;10096;51.112;6.776;2022-11-20T00:59:47;19.90;;;14.87;;
19867;SDS011;10096;51.112;6.776;2022-11-20T01:02:14;22.50;;;16.27;;
19867;SDS011;10096;51.112;6.776;2022-11-20T01:04:41;19.37;;;14.80;;
19867;SDS011;10096;51.112;6.776;2022-11-20T01:07:09;20.10;;;14.93;;
19867;SDS011;10096;51.112;6.776;2022-11-20T01:09:36;24.17;;;17.23;;
19867;SDS011;10096;51.112;6.776;2022-11-20T01:12:03;20.93;;;15.73;;
19867;SDS011;10096;51.112;6.776;2022-11-20T01:14:30;19.27;;;15.23;;
19867;SDS011;10096;51.112;6.776;2022-11-20T01:16:57;22.97;;;15.80;;
19867;SDS011;10096;51.112;6.776;2022-11-20T01:19:24;20.83;;;16.00;;
19867;SDS011;10096;51.112;6.776;2022-11-20T01:21:52;18.53;;;14.43;;
19867;SDS011;10096;51.112;6.776;2022-11-20T01:24:21;23.00;;;16.23;;
19867;SDS011;10096;51.112;6.776;2022-11-20T01:26:49;19.00;;;15.03;;
19867;SDS011;10096;51.112;6.776;2022-11-20T01:29:17;21.93;;;15.43;;
19867;SDS011;10096;51.112;6.776;2022-11-20T01:31:46;18.97;;;15.47;;
19867;SDS011;10096;51.112;6.776;2022-11-20T01:34:14;20.20;;;15.47;;
19867;SDS011;10096;51.112;6.776;2022-11-20T01:36:42;20.63;;;15.23;;
19867;SDS011;10096;51.112;6.776;2022-11-20T01:39:12;22.70;;;16.10;;
19867;SDS011;10096;51.112;6.776;2022-11-20T01:41:42;20.93;;;15.37;;
19867;SDS011;10096;51.112;6.776;2022-11-20T01:44:45;20.20;;;15.07;;
19867;SDS011;10096;51.112;6.776;2022-11-20T01:47:16;21.30;;;15.53;;
19867;SDS011;10096;51.112;6.776;2022-11-20T01:49:46;21.50;;;15.37;;
19867;SDS011;10096;51.112;6.776;2022-11-20T01:52:17;19.53;;;14.90;;
19867;SDS011;10096;51.112;6.776;2022-11-20T01:54:47;20.37;;;14.90;;
19867;SDS011;10096;51.112;6.776;2022-11-20T01:57:20;20.50;;;14.47;;
19867;SDS011;10096;51.112;6.776;2022-11-20T01:59:50;20.23;;;14.87;;
19867;SDS011;10096;51.112;6.776;2022-11-20T02:02:22;18.97;;;14.07;;
19867;SDS011;10096;51.112;6.776;2022-11-20T02:04:49;21.80;;;16.50;;
19867;SDS011;10096;51.112;6.776;2022-11-20T02:07:20;23.33;;;16.10;;
19867;SDS011;10096;51.112;6.776;2022-11-20T02:09:49;20.33;;;15.20;;
19867;SDS011;10096;51.112;6.776;2022-11-20T02:12:16;20.33;;;15.73;;
19867;SDS011;10096;51.112;6.776;2022-11-20T02:14:58;20.93;;;15.67;;
19867;SDS011;10096;51.112;6.776;2022-11-20T02:17:26;21.40;;;15.40;;
19867;SDS011;10096;51.112;6.776;2022-11-20T02:19:53;22.23;;;15.73;;
19867;SDS011;10096;51.112;6.776;2022-11-20T02:22:22;20.17;;;14.60;;
19867;SDS011;10096;51.112;6.776;2022-11-20T02:24:55;21.10;;;15.40;;
19867;SDS011;10096;51.112;6.776;2022-11-20T02:27:24;21.90;;;15.73;;
19867;SDS011;10096;51.112;6.776;2022-11-20T02:29:53;21.63;;;15.50;;
19867;SDS011;10096;51.112;6.776;2022-11-20T02:32:25;20.50;;;14.33;;
19867;SDS011;10096;51.112;6.776;2022-11-20T02:34:53;19.40;;;13.87;;
19867;SDS011;10096;51.112;6.776;2022-11-20T02:37:22;20.53;;;14.93;;
19867;SDS011;10096;51.112;6.776;2022-11-20T02:39:50;21.63;;;14.50;;
19867;SDS011;10096;51.112;6.776;2022-11-20T02:42:19;19.47;;;15.50;;
19867;SDS011;10096;51.112;6.776;2022-11-20T02:44:46;17.13;;;14.10;;
19867;SDS011;10096;51.112;6.776;2022-11-20T02:47:13;18.20;;;13.73;;
19867;SDS011;10096;51.112;6.776;2022-11-20T02:49:42;19.23;;;15.10;;
19867;SDS011;10096;51.112;6.776;2022-11-20T02:52:09;18.57;;;14.80;;
19867;SDS011;10096;51.112;6.776;2022-11-20T02:54:36;19.77;;;14.67;;
19867;SDS011;10096;51.112;6.776;2022-11-20T02:57:02;20.70;;;15.07;;
19867;SDS011;10096;51.112;6.776;2022-11-20T02:59:31;19.07;;;14.63;;
19867;SDS011;10096;51.112;6.776;2022-11-20T03:01:58;18.97;;;14.60;;
19867;SDS011;10096;51.112;6.776;2022-11-20T03:04:25;18.50;;;14.30;;
19867;SDS011;10096;51.112;6.776;2022-11-20T03:06:52;20.47;;;15.00;;
19867;SDS011;10096;51.112;6.776;2022-11-20T03:09:19;21.73;;;15.70;;
19867;SDS011;10096;51.112;6.776;2022-11-20T03:11:47;19.87;;;15.30;;
19867;SDS011;10096;51.112;6.776;2022-11-20T03:14:14;19.17;;;14.80;;
19867;SDS011;10096;51.112;6.776;2022-11-20T03:16:42;18.17;;;14.60;;
19867;SDS011;10096;51.112;6.776;2022-11-20T03:19:09;20.83;;;14.33;;
19867;SDS011;10096;51.112;6.776;2022-11-20T03:21:37;18.90;;;14.90;;
19867;SDS011;10096;51.112;6.776;2022-11-20T03:24:04;19.33;;;14.43;;
19867;SDS011;10096;51.112;6.776;2022-11-20T03:26:32;19.13;;;14.70;;
19867;SDS011;10096;51.112;6.776;2022-11-20T03:29:00;18.97;;;14.17;;
19867;SDS011;10096;51.112;6.776;2022-11-20T03:31:28;19.90;;;14.57;;
19867;SDS011;10096;51.112;6.776;2022-11-20T03:33:58;21.07;;;14.37;;
19867;SDS011;10096;51.112;6.776;2022-11-20T03:36:25;18.03;;;13.80;;
19867;SDS011;10096;51.112;6.776;2022-11-20T03:38:53;20.37;;;15.43;;
19867;SDS011;10096;51.112;6.776;2022-11-20T03:41:22;18.10;;;14.17;;
19867;SDS011;10096;51.112;6.776;2022-11-20T03:43:51;17.33;;;13.90;;
19867;SDS011;10096;51.112;6.776;2022-11-20T03:46:19;18.73;;;14.93;;
19867;SDS011;10096;51.112;6.776;2022-11-20T03:48:49;18.13;;;14.67;;
19867;SDS011;10096;51.112;6.776;2022-11-20T03:51:18;18.63;;;14.47;;
19867;SDS011;10096;51.112;6.776;2022-11-20T03:53:47;18.93;;;14.23;;
19867;SDS011;10096;51.112;6.776;2022-11-20T03:56:16;18.00;;;14.43;;
19867;SDS011;10096;51.112;6.776;2022-11-20T03:58:45;19.87;;;14.07;;
19867;SDS011;10096;51.112;6.776;2022-11-20T04:01:13;17.90;;;14.00;;
19867;SDS011;10096;51.112;6.776;2022-11-20T04:03:41;17.77;;;14.10;;
19867;SDS011;10096;51.112;6.776;2022-11-20T04:06:10;17.70;;;13.63;;
19867;SDS011;10096;51.112;6.776;2022-11-20T04:08:40;17.60;;;13.53;;
19867;SDS011;10096;51.112;6.776;2022-11-20T04:11:08;21.17;;;14.03;;
19867;SDS011;10096;51.112;6.776;2022-11-20T04:13:36;20.33;;;15.43;;
19867;SDS011;10096;51.112;6.776;2022-11-20T04:16:04;19.37;;;14.37;;
19867;SDS011;10096;51.112;6.776;2022-11-20T04:18:31;18.33;;;14.40;;
19867;SDS011;10096;51.112;6.776;2022-11-20T04:20:59;19.30;;;13.80;;
19867;SDS011;10096;51.112;6.776;2022-11-20T04:23:26;18.10;;;14.00;;
19867;SDS011;10096;51.112;6.776;2022-11-20T04:25:54;19.37;;;13.77;;
19867;SDS011;10096;51.112;6.776;2022-11-20T04:28:27;18.27;;;14.83;;
19867;SDS011;10096;51.112;6.776;2022-11-20T04:30:54;16.80;;;14.13;;
19867;SDS011;10096;51.112;6.776;2022-11-20T04:33:27;19.73;;;14.87;;
19867;SDS011;10096;51.112;6.776;2022-11-20T04:35:59;20.57;;;14.60;;
19867;SDS011;10096;51.112;6.776;2022-11-20T04:38:27;18.47;;;14.43;;
19867;SDS011;10096;51.112;6.776;2022-11-20T04:40:57;18.37;;;14.63;;
19867;SDS011;10096;51.112;6.776;2022-11-20T04:43:24;19.77;;;15.13;;
19867;SDS011;10096;51.112;6.776;2022-11-20T04:45:52;19.63;;;14.77;;
19867;SDS011;10096;51.112;6.776;2022-11-20T04:48:19;18.57;;;14.47;;
19867;SDS011;10096;51.112;6.776;2022-11-20T04:50:47;19.07;;;14.37;;
19867;SDS011;10096;51.112;6.776;2022-11-20T04:53:14;16.63;;;13.47;;
19867;SDS011;10096;51.112;6.776;2022-11-20T04:55:42;17.87;;;13.73;;
19867;SDS011;10096;51.112;6.776;2022-11-20T04:58:10;16.73;;;14.27;;
19867;SDS011;10096;51.112;6.776;2022-11-20T05:00:38;19.83;;;14.17;;
19867;SDS011;10096;51.112;6.776;2022-11-20T05:03:05;21.23;;;14.33;;
19867;SDS011;10096;51.112;6.776;2022-11-20T05:05:32;17.10;;;13.13;;
19867;SDS011;10096;51.112;6.776;2022-11-20T05:08:00;18.27;;;14.20;;
19867;SDS011;10096;51.112;6.776;2022-11-20T05:10:27;18.43;;;14.30;;
19867;SDS011;10096;51.112;6.776;2022-11-20T05:12:56;18.80;;;14.17;;
19867;SDS011;10096;51.112;6.776;2022-11-20T05:15:25;19.93;;;14.20;;
19867;SDS011;10096;51.112;6.776;2022-11-20T05:17:52;17.87;;;14.47;;
19867;SDS011;10096;51.112;6.776;2022-11-20T05:20:19;18.73;;;14.63;;
19867;SDS011;10096;51.112;6.776;2022-11-20T05:22:46;20.03;;;15.43;;
19867;SDS011;10096;51.112;6.776;2022-11-20T05:25:14;22.27;;;15.40;;
19867;SDS011;10096;51.112;6.776;2022-11-20T05:27:41;20.93;;;16.00;;
19867;SDS011;10096;51.112;6.776;2022-11-20T05:30:08;19.77;;;15.00;;
19867;SDS011;10096;51.112;6.776;2022-11-20T05:32:38;20.73;;;16.20;;
19867;SDS011;10096;51.112;6.776;2022-11-20T05:35:05;18.33;;;14.67;;
19867;SDS011;10096;51.112;6.776;2022-11-20T05:37:32;23.53;;;15.70;;
19867;SDS011;10096;51.112;6.776;2022-11-20T05:39:59;19.27;;;15.23;;
19867;SDS011;10096;51.112;6.776;2022-11-20T05:42:26;18.83;;;15.23;;
19867;SDS011;10096;51.112;6.776;2022-11-20T05:44:56;19.43;;;15.17;;
19867;SDS011;10096;51.112;6.776;2022-11-20T05:47:23;19.77;;;15.07;;
19867;SDS011;10096;51.112;6.776;2022-11-20T05:49:52;18.37;;;14.53;;
19867;SDS011;10096;51.112;6.776;2022-11-20T05:52:20;17.27;;;14.07;;
19867;SDS011;10096;51.112;6.776;2022-11-20T05:54:48;19.40;;;14.53;;
19867;SDS011;10096;51.112;6.776;2022-11-20T05:57:15;20.00;;;14.67;;
19867;SDS011;10096;51.112;6.776;2022-11-20T05:59:42;20.70;;;15.40;;
19867;SDS011;10096;51.112;6.776;2022-11-20T06:02:10;19.83;;;14.87;;
19867;SDS011;10096;51.112;6.776;2022-11-20T06:04:36;20.40;;;15.50;;
19867;SDS011;10096;51.112;6.776;2022-11-20T06:07:05;20.17;;;15.23;;
19867;SDS011;10096;51.112;6.776;2022-11-20T06:09:32;20.97;;;15.20;;
19867;SDS011;10096;51.112;6.776;2022-11-20T06:11:59;19.77;;;15.20;;
19867;SDS011;10096;51.112;6.776;2022-11-20T06:14:26;19.57;;;15.07;;
19867;SDS011;10096;51.112;6.776;2022-11-20T06:16:53;20.60;;;15.77;;
19867;SDS011;10096;51.112;6.776;2022-11-20T06:19:20;21.13;;;15.97;;
19867;SDS011;10096;51.112;6.776;2022-11-20T06:21:47;20.43;;;15.23;;
19867;SDS011;10096;51.112;6.776;2022-11-20T06:24:16;24.20;;;15.97;;
19867;SDS011;10096;51.112;6.776;2022-11-20T06:26:44;20.87;;;15.80;;
19867;SDS011;10096;51.112;6.776;2022-11-20T06:29:11;22.27;;;16.37;;
19867;SDS011;10096;51.112;6.776;2022-11-20T06:31:38;19.60;;;15.30;;
19867;SDS011;10096;51.112;6.776;2022-11-20T06:34:07;21.00;;;15.87;;
19867;SDS011;10096;51.112;6.776;2022-11-20T06:36:34;20.37;;;15.80;;
19867;SDS011;10096;51.112;6.776;2022-11-20T06:39:01;21.20;;;15.80;;
19867;SDS011;10096;51.112;6.776;2022-11-20T06:41:30;20.17;;;15.27;;
19867;SDS011;10096;51.112;6.776;2022-11-20T06:43:57;21.67;;;16.43;;
19867;SDS011;10096;51.112;6.776;2022-11-20T06:46:24;19.43;;;15.30;;
19867;SDS011;10096;51.112;6.776;2022-11-20T06:48:52;21.00;;;16.03;;
19867;SDS011;10096;51.112;6.776;2022-11-20T06:51:24;24.77;;;16.13;;
19867;SDS011;10096;51.112;6.776;2022-11-20T06:53:52;22.70;;;17.37;;
19867;SDS011;10096;51.112;6.776;2022-11-20T06:56:19;23.73;;;17.73;;
19867;SDS011;10096;51.112;6.776;2022-11-20T06:58:54;22.57;;;17.47;;
19867;SDS011;10096;51.112;6.776;2022-11-20T07:01:21;23.40;;;17.13;;
19867;SDS011;10096;51.112;6.776;2022-11-20T07:03:48;25.40;;;18.23;;
19867;SDS011;10096;51.112;6.776;2022-11-20T07:06:16;27.67;;;17.57;;
19867;SDS011;10096;51.112;6.776;2022-11-20T07:08:43;23.00;;;17.27;;
19867;SDS011;10096;51.112;6.776;2022-11-20T07:11:10;23.10;;;17.13;;
19867;SDS011;10096;51.112;6.776;2022-11-20T07:13:38;20.07;;;16.33;;
19867;SDS011;10096;51.112;6.776;2022-11-20T07:16:07;19.20;;;15.37;;
19867;SDS011;10096;51.112;6.776;2022-11-20T07:18:35;19.47;;;15.37;;
19867;SDS011;10096;51.112;6.776;2022-11-20T07:21:02;41.93;;;23.93;;
19867;SDS011;10096;51.112;6.776;2022-11-20T07:23:30;44.93;;;32.97;;
19867;SDS011;10096;51.112;6.776;2022-11-20T07:25:58;32.00;;;26.67;;
19867;SDS011;10096;51.112;6.776;2022-11-20T07:28:30;20.97;;;16.67;;
19867;SDS011;10096;51.112;6.776;2022-11-20T07:30:57;20.70;;;16.17;;
19867;SDS011;10096;51.112;6.776;2022-11-20T07:33:26;24.00;;;17.73;;
19867;SDS011;10096;51.112;6.776;2022-11-20T07:35:53;19.30;;;14.70;;
19867;SDS011;10096;51.112;6.776;2022-11-20T07:38:20;20.10;;;15.40;;
19867;SDS011;10096;51.112;6.776;2022-11-20T07:40:47;20.37;;;15.33;;
19867;SDS011;10096;51.112;6.776;2022-11-20T07:43:14;20.20;;;15.73;;
19867;SDS011;10096;51.112;6.776;2022-11-20T07:45:41;19.10;;;14.70;;
19867;SDS011;10096;51.112;6.776;2022-11-20T07:48:08;20.03;;;16.30;;
19867;SDS011;10096;51.112;6.776;2022-11-20T07:50:36;18.73;;;16.00;;
19867;SDS011;10096;51.112;6.776;2022-11-20T07:53:04;20.10;;;16.17;;
19867;SDS011;10096;51.112;6.776;2022-11-20T07:55:31;22.80;;;16.47;;
19867;SDS011;10096;51.112;6.776;2022-11-20T07:57:59;20.43;;;16.10;;
19867;SDS011;10096;51.112;6.776;2022-11-20T08:00:26;19.13;;;15.77;;
19867;SDS011;10096;51.112;6.776;2022-11-20T08:02:54;19.63;;;16.40;;
19867;SDS011;10096;51.112;6.776;2022-11-20T08:05:22;20.47;;;16.20;;
19867;SDS011;10096;51.112;6.776;2022-11-20T08:07:51;20.53;;;15.73;;
19867;SDS011;10096;51.112;6.776;2022-11-20T08:10:19;20.93;;;15.17;;
19867;SDS011;10096;51.112;6.776;2022-11-20T08:12:46;20.73;;;16.27;;
19867;SDS011;10096;51.112;6.776;2022-11-20T08:15:32;19.70;;;15.53;;
19867;SDS011;10096;51.112;6.776;2022-11-20T08:18:00;21.07;;;16.67;;
19867;SDS011;10096;51.112;6.776;2022-11-20T08:20:28;21.70;;;16.97;;
19867;SDS011;10096;51.112;6.776;2022-11-20T08:23:00;21.23;;;16.27;;
19867;SDS011;10096;51.112;6.776;2022-11-20T08:25:27;20.40;;;16.97;;
19867;SDS011;10096;51.112;6.776;2022-11-20T08:27:56;25.27;;;20.13;;
19867;SDS011;10096;51.112;6.776;2022-11-20T08:30:24;21.13;;;17.17;;
19867;SDS011;10096;51.112;6.776;2022-11-20T08:32:51;21.83;;;16.30;;
19867;SDS011;10096;51.112;6.776;2022-11-20T08:35:19;22.57;;;17.17;;
19867;SDS011;10096;51.112;6.776;2022-11-20T08:37:49;21.70;;;16.53;;
19867;SDS011;10096;51.112;6.776;2022-11-20T08:40:17;21.70;;;17.37;;
19867;SDS011;10096;51.112;6.776;2022-11-20T08:42:48;19.93;;;16.03;;
19867;SDS011;10096;51.112;6.776;2022-11-20T08:45:15;21.47;;;16.47;;
19867;SDS011;10096;51.112;6.776;2022-11-20T08:47:43;20.87;;;17.73;;
19867;SDS011;10096;51.112;6.776;2022-11-20T08:50:12;20.00;;;16.47;;
19867;SDS011;10096;51.112;6.776;2022-11-20T08:52:41;19.13;;;15.63;;
19867;SDS011;10096;51.112;6.776;2022-11-20T08:55:10;20.10;;;15.63;;
19867;SDS011;10096;51.112;6.776;2022-11-20T08:57:40;19.77;;;14.47;;
19867;SDS011;10096;51.112;6.776;2022-11-20T09:00:07;22.03;;;16.67;;
19867;SDS011;10096;51.112;6.776;2022-11-20T09:02:36;22.27;;;16.30;;
19867;SDS011;10096;51.112;6.776;2022-11-20T09:05:04;21.60;;;17.10;;
19867;SDS011;10096;51.112;6.776;2022-11-20T09:07:31;20.83;;;17.23;;
19867;SDS011;10096;51.112;6.776;2022-11-20T09:09:59;22.47;;;17.07;;
19867;SDS011;10096;51.112;6.776;2022-11-20T09:12:26;20.97;;;17.50;;
19867;SDS011;10096;51.112;6.776;2022-11-20T09:14:54;19.33;;;15.93;;
19867;SDS011;10096;51.112;6.776;2022-11-20T09:17:21;20.77;;;16.80;;
19867;SDS011;10096;51.112;6.776;2022-11-20T09:19:48;20.07;;;16.23;;
19867;SDS011;10096;51.112;6.776;2022-11-20T09:22:15;19.77;;;15.73;;
19867;SDS011;10096;51.112;6.776;2022-11-20T09:24:43;16.87;;;13.00;;
19867;SDS011;10096;51.112;6.776;2022-11-20T09:27:10;18.30;;;13.37;;
19867;SDS011;10096;51.112;6.776;2022-11-20T09:29:37;17.33;;;12.93;;
19867;SDS011;10096;51.112;6.776;2022-11-20T09:32:08;19.93;;;15.07;;
19867;SDS011;10096;51.112;6.776;2022-11-20T09:34:35;20.23;;;15.50;;
19867;SDS011;10096;51.112;6.776;2022-11-20T09:37:03;16.53;;;13.23;;
19867;SDS011;10096;51.112;6.776;2022-11-20T09:39:30;18.33;;;13.07;;
19867;SDS011;10096;51.112;6.776;2022-11-20T09:44:55;16.33;;;12.70;;
19867;SDS011;10096;51.112;6.776;2022-11-20T09:47:35;19.50;;;14.33;;
19867;SDS011;10096;51.112;6.776;2022-11-20T09:50:23;16.13;;;12.80;;
19867;SDS011;10096;51.112;6.776;2022-11-20T09:52:59;17.43;;;12.57;;
19867;SDS011;10096;51.112;6.776;2022-11-20T09:55:35;18.73;;;13.30;;
19867;SDS011;10096;51.112;6.776;2022-11-20T09:58:05;16.37;;;12.80;;
19867;SDS011;10096;51.112;6.776;2022-11-20T10:00:35;18.00;;;13.57;;
19867;SDS011;10096;51.112;6.776;2022-11-20T10:03:06;17.57;;;12.73;;
19867;SDS011;10096;51.112;6.776;2022-11-20T10:05:41;18.83;;;13.43;;
19867;SDS011;10096;51.112;6.776;2022-11-20T10:08:14;17.70;;;13.03;;
19867;SDS011;10096;51.112;6.776;2022-11-20T10:10:46;19.00;;;13.50;;
19867;SDS011;10096;51.112;6.776;2022-11-20T10:13:19;19.83;;;14.27;;
19867;SDS011;10096;51.112;6.776;2022-11-20T10:15:56;19.23;;;15.23;;
19867;SDS011;10096;51.112;6.776;2022-11-20T10:18:39;19.43;;;15.20;;
19867;SDS011;10096;51.112;6.776;2022-11-20T10:21:18;18.53;;;14.50;;
19867;SDS011;10096;51.112;6.776;2022-11-20T10:24:01;20.07;;;15.07;;
19867;SDS011;10096;51.112;6.776;2022-11-20T10:26:50;19.60;;;15.20;;
19867;SDS011;10096;51.112;6.776;2022-11-20T10:29:24;19.13;;;14.43;;
19867;SDS011;10096;51.112;6.776;2022-11-20T10:32:00;19.97;;;14.97;;
19867;SDS011;10096;51.112;6.776;2022-11-20T10:34:33;19.00;;;14.00;;
19867;SDS011;10096;51.112;6.776;2022-11-20T10:37:11;18.87;;;14.17;;
19867;SDS011;10096;51.112;6.776;2022-11-20T10:39:44;20.10;;;14.83;;
19867;SDS011;10096;51.112;6.776;2022-11-20T10:42:21;19.27;;;14.13;;
19867;SDS011;10096;51.112;6.776;2022-11-20T10:44:58;21.70;;;15.37;;
19867;SDS011;10096;51.112;6.776;2022-11-20T10:50:52;18.33;;;14.53;;
19867;SDS011;10096;51.112;6.776;2022-11-20T10:53:31;20.93;;;15.10;;
19867;SDS011;10096;51.112;6.776;2022-11-20T10:56:16;17.17;;;13.27;;
19867;SDS011;10096;51.112;6.776;2022-11-20T10:58:49;18.40;;;14.07;;
19867;SDS011;10096;51.112;6.776;2022-11-20T11:01:27;21.93;;;15.53;;
19867;SDS011;10096;51.112;6.776;2022-11-20T11:03:54;20.33;;;16.43;;
19867;SDS011;10096;51.112;6.776;2022-11-20T11:06:26;19.53;;;14.67;;
19867;SDS011;10096;51.112;6.776;2022-11-20T11:09:01;20.67;;;14.93;;
19867;SDS011;10096;51.112;6.776;2022-11-20T11:11:40;22.00;;;15.77;;
19867;SDS011;10096;51.112;6.776;2022-11-20T11:14:10;18.67;;;14.37;;
19867;SDS011;10096;51.112;6.776;2022-11-20T11:16:40;22.10;;;15.63;;
19867;SDS011;10096;51.112;6.776;2022-11-20T11:19:18;20.30;;;15.90;;
19867;SDS011;10096;51.112;6.776;2022-11-20T11:21:47;24.23;;;16.33;;
19867;SDS011;10096;51.112;6.776;2022-11-20T11:24:19;23.90;;;16.27;;
19867;SDS011;10096;51.112;6.776;2022-11-20T11:26:56;22.80;;;16.37;;
19867;SDS011;10096;51.112;6.776;2022-11-20T11:29:29;21.60;;;16.80;;
19867;SDS011;10096;51.112;6.776;2022-11-20T11:32:04;23.40;;;16.87;;
19867;SDS011;10096;51.112;6.776;2022-11-20T11:34:34;22.10;;;15.73;;
19867;SDS011;10096;51.112;6.776;2022-11-20T11:37:04;26.77;;;17.07;;
19867;SDS011;10096;51.112;6.776;2022-11-20T11:39:39;21.37;;;16.40;;
19867;SDS011;10096;51.112;6.776;2022-11-20T11:42:08;21.20;;;16.53;;
19867;SDS011;10096;51.112;6.776;2022-11-20T11:44:43;23.37;;;17.17;;
19867;SDS011;10096;51.112;6.776;2022-11-20T11:47:29;22.87;;;16.00;;
19867;SDS011;10096;51.112;6.776;2022-11-20T11:50:02;22.33;;;15.97;;
19867;SDS011;10096;51.112;6.776;2022-11-20T11:52:45;23.57;;;17.17;;
19867;SDS011;10096;51.112;6.776;2022-11-20T11:55:24;24.77;;;16.57;;
19867;SDS011;10096;51.112;6.776;2022-11-20T11:57:57;24.53;;;16.77;;
19867;SDS011;10096;51.112;6.776;2022-11-20T12:00:39;21.07;;;15.27;;
19867;SDS011;10096;51.112;6.776;2022-11-20T12:03:13;20.00;;;15.77;;
19867;SDS011;10096;51.112;6.776;2022-11-20T12:05:45;23.97;;;17.00;;
19867;SDS011;10096;51.112;6.776;2022-11-20T12:08:20;23.03;;;17.57;;
19867;SDS011;10096;51.112;6.776;2022-11-20T12:10:54;21.00;;;16.10;;
19867;SDS011;10096;51.112;6.776;2022-11-20T12:13:27;21.83;;;16.57;;
19867;SDS011;10096;51.112;6.776;2022-11-20T12:16:07;22.90;;;17.00;;
19867;SDS011;10096;51.112;6.776;2022-11-20T12:18:39;21.53;;;16.17;;
19867;SDS011;10096;51.112;6.776;2022-11-20T12:21:21;21.97;;;15.63;;
19867;SDS011;10096;51.112;6.776;2022-11-20T12:27:02;21.80;;;16.67;;
19867;SDS011;10096;51.112;6.776;2022-11-20T12:29:42;21.67;;;15.60;;
19867;SDS011;10096;51.112;6.776;2022-11-20T12:32:30;24.83;;;17.67;;
19867;SDS011;10096;51.112;6.776;2022-11-20T12:35:20;23.23;;;17.27;;
19867;SDS011;10096;51.112;6.776;2022-11-20T12:38:03;22.47;;;17.80;;
19867;SDS011;10096;51.112;6.776;2022-11-20T12:40:52;25.33;;;19.10;;
19867;SDS011;10096;51.112;6.776;2022-11-20T12:43:29;23.63;;;17.47;;
19867;SDS011;10096;51.112;6.776;2022-11-20T12:46:22;25.57;;;18.77;;
19867;SDS011;10096;51.112;6.776;2022-11-20T12:49:16;27.20;;;18.03;;
19867;SDS011;10096;51.112;6.776;2022-11-20T12:51:59;25.13;;;18.90;;
19867;SDS011;10096;51.112;6.776;2022-11-20T12:54:41;25.73;;;18.63;;
19867;SDS011;10096;51.112;6.776;2022-11-20T12:57:24;27.27;;;20.73;;
19867;SDS011;10096;51.112;6.776;2022-11-20T13:00:10;24.30;;;18.03;;
19867;SDS011;10096;51.112;6.776;2022-11-20T13:02:50;25.03;;;18.50;;
19867;SDS011;10096;51.112;6.776;2022-11-20T13:05:37;26.87;;;18.83;;
19867;SDS011;10096;51.112;6.776;2022-11-20T13:08:14;23.33;;;16.97;;
19867;SDS011;10096;51.112;6.776;2022-11-20T13:10:49;25.87;;;18.57;;
19867;SDS011;10096;51.112;6.776;2022-11-20T13:13:23;29.00;;;19.13;;
19867;SDS011;10096;51.112;6.776;2022-11-20T13:15:58;23.80;;;18.37;;
19867;SDS011;10096;51.112;6.776;2022-11-20T13:18:29;26.10;;;17.63;;
19867;SDS011;10096;51.112;6.776;2022-11-20T13:21:13;25.30;;;18.30;;
19867;SDS011;10096;51.112;6.776;2022-11-20T13:23:41;26.57;;;18.53;;
19867;SDS011;10096;51.112;6.776;2022-11-20T13:26:14;27.47;;;19.20;;
19867;SDS011;10096;51.112;6.776;2022-11-20T13:28:45;34.90;;;21.50;;
19867;SDS011;10096;51.112;6.776;2022-11-20T13:31:25;34.23;;;21.83;;
19867;SDS011;10096;51.112;6.776;2022-11-20T13:33:57;32.37;;;20.40;;
19867;SDS011;10096;51.112;6.776;2022-11-20T13:36:27;31.70;;;21.97;;
19867;SDS011;10096;51.112;6.776;2022-11-20T13:38:55;28.83;;;19.37;;
19867;SDS011;10096;51.112;6.776;2022-11-20T13:41:23;28.57;;;20.13;;
19867;SDS011;10096;51.112;6.776;2022-11-20T13:43:59;27.77;;;19.97;;
19867;SDS011;10096;51.112;6.776;2022-11-20T13:46:41;29.97;;;19.07;;
19867;SDS011;10096;51.112;6.776;2022-11-20T13:49:14;28.23;;;19.53;;
19867;SDS011;10096;51.112;6.776;2022-11-20T13:51:47;28.23;;;19.20;;
19867;SDS011;10096;51.112;6.776;2022-11-20T13:57:29;27.63;;;19.70;;
19867;SDS011;10096;51.112;6.776;2022-11-20T14:00:13;24.23;;;16.93;;
19867;SDS011;10096;51.112;6.776;2022-11-20T14:02:44;26.57;;;18.07;;
19867;SDS011;10096;51.112;6.776;2022-11-20T14:05:24;25.27;;;19.03;;
19867;SDS011;10096;51.112;6.776;2022-11-20T14:07:52;25.67;;;18.47;;
19867;SDS011;10096;51.112;6.776;2022-11-20T14:10:21;24.07;;;17.63;;
19867;SDS011;10096;51.112;6.776;2022-11-20T14:12:50;22.73;;;16.70;;
19867;SDS011;10096;51.112;6.776;2022-11-20T14:15:24;22.97;;;17.57;;
19867;SDS011;10096;51.112;6.776;2022-11-20T14:17:56;25.67;;;17.23;;
19867;SDS011;10096;51.112;6.776;2022-11-20T14:20:24;23.47;;;17.80;;
19867;SDS011;10096;51.112;6.776;2022-11-20T14:22:56;23.07;;;18.23;;
19867;SDS011;10096;51.112;6.776;2022-11-20T14:25:24;24.53;;;17.80;;
19867;SDS011;10096;51.112;6.776;2022-11-20T14:27:56;23.00;;;17.13;;
19867;SDS011;10096;51.112;6.776;2022-11-20T14:30:25;26.00;;;17.97;;
19867;SDS011;10096;51.112;6.776;2022-11-20T14:33:13;24.03;;;17.50;;
19867;SDS011;10096;51.112;6.776;2022-11-20T14:35:46;21.57;;;15.83;;
19867;SDS011;10096;51.112;6.776;2022-11-20T14:38:17;21.83;;;16.93;;
19867;SDS011;10096;51.112;6.776;2022-11-20T14:40:46;20.07;;;15.70;;
19867;SDS011;10096;51.112;6.776;2022-11-20T14:43:17;23.90;;;16.67;;
19867;SDS011;10096;51.112;6.776;2022-11-20T14:45:48;23.67;;;17.20;;
19867;SDS011;10096;51.112;6.776;2022-11-20T14:48:27;21.30;;;15.73;;
19867;SDS011;10096;51.112;6.776;2022-11-20T14:50:57;22.83;;;15.97;;
19867;SDS011;10096;51.112;6.776;2022-11-20T14:53:24;23.03;;;16.27;;